Vanessa Oldendorff — CQFX — position and weather

sailwx.info

Track history (hours):
 
Tides and Currents Weather Stations Pressure Air Temp Water Temp Dewpoint Dewpoint Depression Visibility Wind Speed Wind Dir Waves Ship Positions

Vanessa Oldendorff

Last reported at 2018-Jun-21 15:22 UTC. Time now 2018-Jun-23 06:18 UTC.
Position N 49°42' W 003°37'.

Length 183 m; draft 10.4 m.

Type: Cargo ship. MMSI: 255805625.

Date/timePositionNaut miles runAvg speedWind from/ knotsBaromVisibWave heightAir tempDewpointWater temp
2018-Jun-21 15:22N 49°42' W 003°37'812.2
2018-Jun-21 14:41N 49°46' W 003°26'211.9
2018-Jun-21 14:30N 49°47' W 003°23'612.0
2018-Jun-21 14:00N 49°50' W 003°15'612.0
2018-Jun-21 13:29N 49°53' W 003°06'611.8
2018-Jun-21 13:00N 49°56' W 002°59'611.8
2018-Jun-21 12:30N 49°58' W 002°50'612.1
2018-Jun-21 12:00N 50°00' W 002°41'612.4
2018-Jun-21 11:30N 50°02' W 002°32'6814.7
2018-Jun-21 06:52N 50°21' W 000°50'514.4
2018-Jun-21 06:30N 50°22' W 000°42'714.0
2018-Jun-21 05:59N 50°25' W 000°31'713.5
2018-Jun-21 05:30N 50°26' W 000°21'1112.9
2018-Jun-21 04:39N 50°30' W 000°05'612.2
2018-Jun-21 04:08N 50°31' E 000°05'212.0
2018-Jun-21 03:59N 50°32' E 000°07'611.7
2018-Jun-21 03:30N 50°33' E 000°16'611.5
2018-Jun-21 03:00N 50°35' E 000°25'611.3
2018-Jun-21 02:30N 50°37' E 000°33'612.0
2018-Jun-21 02:00N 50°40' E 000°41'612.4
2018-Jun-21 01:30N 50°43' E 000°49'612.8
2018-Jun-21 01:00N 50°47' E 000°58'713.4
2018-Jun-21 00:30N 50°52' E 001°05'713.8
2018-Jun-21 00:00N 50°56' E 001°13'714.1
2018-Jun-20 23:30N 51°01' E 001°21'713.8
2018-Jun-20 23:00N 51°05' E 001°30'713.1
2018-Jun-20 22:30N 51°09' E 001°38'612.4
2018-Jun-20 22:00N 51°14' E 001°46'611.5
2018-Jun-20 21:30N 51°19' E 001°50'611.2
2018-Jun-20 21:00N 51°24' E 001°53'510.7
2018-Jun-20 20:30N 51°29' E 001°57'510.5
2018-Jun-20 20:00N 51°33' E 002°02'510.5
2018-Jun-20 19:30N 51°37' E 002°08'510.8
2018-Jun-20 19:00N 51°40' E 002°14'510.6
2018-Jun-20 18:30N 51°44' E 002°20'611.1
2018-Jun-20 17:58N 51°49' E 002°26'4512.8
2018-Jun-20 14:26N 52°30' E 002°56'41611.0
2018-Jun-19 00:38N 57°46' E 010°50'211.4
2018-Jun-19 00:29N 57°45' E 010°52'611.6
2018-Jun-19 00:00N 57°42' E 011°00'611.8
2018-Jun-18 23:30N 57°38' E 011°08'611.6
2018-Jun-18 23:00N 57°34' E 011°16'611.2
2018-Jun-18 22:31N 57°30' E 011°24'611.3
2018-Jun-18 22:00N 57°26' E 011°30'611.6
2018-Jun-18 21:30N 57°20' E 011°34'611.5
2018-Jun-18 21:00N 57°14' E 011°36'12211.0
2018-Jun-18 09:53N 55°13' E 011°06'512.3
2018-Jun-18 09:30N 55°09' E 011°03'612.7
2018-Jun-18 09:00N 55°03' E 011°02'611.7
2018-Jun-18 08:30N 54°58' E 010°56'5 9.3
2018-Jun-18 08:00N 54°54' E 010°52'510.6
2018-Jun-18 07:30N 54°49' E 010°50'611.9
2018-Jun-18 07:00N 54°43' E 010°47'510.4
2018-Jun-18 06:30N 54°39' E 010°53'611.7
2018-Jun-18 06:00N 54°36' E 011°01'611.6
2018-Jun-18 05:30N 54°35' E 011°11'612.3
2018-Jun-18 05:00N 54°33' E 011°21'612.5
2018-Jun-18 04:30N 54°30' E 011°31'611.8
2018-Jun-18 03:58N 54°28' E 011°41'611.9
2018-Jun-18 03:29N 54°26' E 011°50'612.4
2018-Jun-18 02:59N 54°26' E 012°01'611.6
2018-Jun-18 02:29N 54°27' E 012°11'711.7
2018-Jun-18 01:53N 54°33' E 012°15'3 8.7
2018-Jun-18 01:30N 54°37' E 012°17'4 7.8
2018-Jun-18 00:58N 54°39' E 012°23'5011.3
2018-Jun-17 20:34N 54°44' E 013°49'112.5
2018-Jun-17 20:30N 54°44' E 013°50'1012.6
2018-Jun-17 19:43N 54°41' E 014°07'312.5
2018-Jun-17 19:28N 54°40' E 014°12'812.3
2018-Jun-17 18:48N 54°38' E 014°26'412.4
2018-Jun-17 18:30N 54°39' E 014°32'812.5
2018-Jun-17 17:52N 54°40' E 014°45'612.7
2018-Jun-17 17:23N 54°41' E 014°56'512.7
2018-Jun-17 17:00N 54°41' E 015°04'612.5
2018-Jun-17 16:30N 54°42' E 015°15'7111.9
2018-Jun-17 10:32N 54°54' E 017°16'012.1
2018-Jun-17 10:30N 54°54' E 017°17'1312.3
2018-Jun-17 09:28N 54°57' E 017°38'612.0
2018-Jun-17 09:00N 54°58' E 017°48'612.3
2018-Jun-17 08:30N 54°58' E 017°59'612.3
2018-Jun-17 07:59N 54°58' E 018°10'612.5
2018-Jun-17 07:30N 54°58' E 018°20'612.2
2018-Jun-17 07:00N 54°58' E 018°31'612.3
2018-Jun-17 06:30N 54°54' E 018°40'612.3
2018-Jun-17 06:00N 54°51' E 018°48'612.0
2018-Jun-17 05:30N 54°47' E 018°56'611.1
2018-Jun-17 05:00N 54°41' E 018°58'612.3
2018-Jun-17 04:30N 54°35' E 018°54'612.3
2018-Jun-17 04:00N 54°31' E 018°47'510.9
2018-Jun-17 03:30N 54°27' E 018°41'2 4.3
2018-Jun-17 03:00N 54°25' E 018°40'1 2.5
2018-Jun-17 02:30N 54°24' E 018°41'1 1.5
2018-Jun-17 01:58N 54°23' E 018°40'0 0.0
2018-Jun-17 01:28N 54°23' E 018°40'0 0.0
2018-Jun-17 00:58N 54°23' E 018°40'0 0.0
2018-Jun-17 00:28N 54°23' E 018°40'0 0.0
2018-Jun-16 23:58N 54°23' E 018°40'0 0.0
2018-Jun-16 23:28N 54°23' E 018°40'0 0.0
2018-Jun-16 22:58N 54°23' E 018°40'0 0.0
2018-Jun-16 22:28N 54°23' E 018°40'0 0.0
2018-Jun-16 21:55N 54°23' E 018°40'0 0.0
2018-Jun-16 21:28N 54°23' E 018°40'0 0.0
2018-Jun-16 20:58N 54°23' E 018°40'0 0.0
2018-Jun-16 20:28N 54°23' E 018°40'0 0.0
2018-Jun-16 19:58N 54°23' E 018°40'0 0.0
2018-Jun-16 19:28N 54°23' E 018°40'0 0.0
2018-Jun-16 18:58N 54°23' E 018°40'0 0.0
2018-Jun-16 18:28N 54°23' E 018°40'0 0.0
2018-Jun-16 17:58N 54°23' E 018°40'0 0.0
2018-Jun-16 17:25N 54°23' E 018°40'0 0.0
2018-Jun-16 16:58N 54°23' E 018°40'0 0.0
2018-Jun-16 16:25N 54°23' E 018°40'0 0.0
2018-Jun-16 15:58N 54°23' E 018°40'0 0.0
2018-Jun-16 15:28N 54°23' E 018°40'0 0.0
2018-Jun-16 14:58N 54°23' E 018°40'0 0.0
2018-Jun-16 14:28N 54°23' E 018°40'0 0.0
2018-Jun-16 13:55N 54°23' E 018°40'0 0.0
2018-Jun-16 13:28N 54°23' E 018°40'0 0.0
2018-Jun-16 12:58N 54°23' E 018°40'0 0.0
2018-Jun-16 12:28N 54°23' E 018°40'0 0.0
2018-Jun-16 11:58N 54°23' E 018°40'0 0.0
2018-Jun-16 11:25N 54°23' E 018°40'0 0.0
2018-Jun-16 10:58N 54°23' E 018°40'0 0.0
2018-Jun-16 10:28N 54°23' E 018°40'0 0.0
2018-Jun-16 09:58N 54°23' E 018°40'0 0.0
2018-Jun-16 09:28N 54°23' E 018°40'0 0.0
2018-Jun-16 08:58N 54°23' E 018°40'0 0.0
2018-Jun-16 08:28N 54°23' E 018°40'0 0.0
2018-Jun-16 07:58N 54°23' E 018°40'0 0.0
2018-Jun-16 07:28N 54°23' E 018°40'0 0.0
2018-Jun-16 06:58N 54°23' E 018°40'0 0.0
2018-Jun-16 06:28N 54°23' E 018°40'0 0.0
2018-Jun-16 05:58N 54°23' E 018°40'0 0.0
2018-Jun-16 05:28N 54°23' E 018°40'0 0.0
2018-Jun-16 04:58N 54°23' E 018°40'0 0.0
2018-Jun-16 04:28N 54°23' E 018°40'0 0.0
2018-Jun-16 03:58N 54°23' E 018°40'0 0.0
2018-Jun-16 03:28N 54°23' E 018°40'0 0.0
2018-Jun-16 02:58N 54°23' E 018°40'0 0.0
2018-Jun-16 02:28N 54°23' E 018°40'0 0.0
2018-Jun-16 01:58N 54°23' E 018°40'0 0.0
2018-Jun-16 01:28N 54°23' E 018°40'0 0.0
2018-Jun-16 00:58N 54°23' E 018°40'0 0.0
2018-Jun-16 00:28N 54°23' E 018°40'0 0.0
2018-Jun-15 23:58N 54°23' E 018°40'0 0.0
2018-Jun-15 23:28N 54°23' E 018°40'0 0.0
2018-Jun-15 22:58N 54°23' E 018°40'0 0.0
2018-Jun-15 22:28N 54°23' E 018°40'0 0.0
2018-Jun-15 21:58N 54°23' E 018°40'0 0.0
2018-Jun-15 21:28N 54°23' E 018°40'0 0.0
2018-Jun-15 20:58N 54°23' E 018°40'0 0.0
2018-Jun-15 20:28N 54°23' E 018°40'0 0.0
2018-Jun-15 19:58N 54°23' E 018°40'0 0.0
2018-Jun-15 19:28N 54°23' E 018°40'0 0.0
2018-Jun-15 18:58N 54°23' E 018°40'0 0.0
2018-Jun-15 18:28N 54°23' E 018°40'0 0.0
2018-Jun-15 17:58N 54°23' E 018°40'0 0.0
2018-Jun-15 17:28N 54°23' E 018°40'0 0.0
2018-Jun-15 16:58N 54°23' E 018°40'0 0.0
2018-Jun-15 16:28N 54°23' E 018°40'0 0.0
2018-Jun-15 15:58N 54°23' E 018°40'0 0.0
2018-Jun-15 15:28N 54°23' E 018°40'0 0.0
2018-Jun-15 14:58N 54°23' E 018°40'0 0.0
2018-Jun-15 14:28N 54°23' E 018°40'0 0.0
2018-Jun-15 13:58N 54°23' E 018°40'0 0.0
2018-Jun-15 13:28N 54°23' E 018°40'0 0.0
2018-Jun-15 12:58N 54°23' E 018°40'0 0.0
2018-Jun-15 12:28N 54°23' E 018°40'0 0.0
2018-Jun-15 11:58N 54°23' E 018°40'0 0.0
2018-Jun-15 11:28N 54°23' E 018°40'0 0.0
2018-Jun-15 10:58N 54°23' E 018°40'0 0.0
2018-Jun-15 10:28N 54°23' E 018°40'0 0.0
2018-Jun-15 09:58N 54°23' E 018°40'0 0.0
2018-Jun-15 09:28N 54°23' E 018°40'0 0.0
2018-Jun-15 08:58N 54°23' E 018°40'0 0.0
2018-Jun-15 08:28N 54°23' E 018°40'0 0.0
2018-Jun-15 07:58N 54°23' E 018°40'0 0.0
2018-Jun-15 07:28N 54°23' E 018°40'0 0.0
2018-Jun-15 06:58N 54°23' E 018°40'0 0.0
2018-Jun-15 06:28N 54°23' E 018°40'0 0.0
2018-Jun-15 05:58N 54°23' E 018°40'0 0.0
2018-Jun-15 05:28N 54°23' E 018°40'0 0.0
2018-Jun-15 04:58N 54°23' E 018°40'0 0.0
2018-Jun-15 04:28N 54°23' E 018°40'0 0.0
2018-Jun-15 03:58N 54°23' E 018°40'0 0.0
2018-Jun-15 03:28N 54°23' E 018°40'0 0.0
2018-Jun-15 02:58N 54°23' E 018°40'0 0.0
2018-Jun-15 02:28N 54°23' E 018°40'0 0.0
2018-Jun-15 01:58N 54°23' E 018°40'0 0.0
2018-Jun-15 01:28N 54°23' E 018°40'0 0.0
2018-Jun-15 00:58N 54°23' E 018°40'0 0.0
2018-Jun-15 00:28N 54°23' E 018°40'0 0.0
2018-Jun-14 23:58N 54°23' E 018°40'0 0.0
2018-Jun-14 23:28N 54°23' E 018°40'0 0.0
2018-Jun-14 22:58N 54°23' E 018°40'0 0.0
2018-Jun-14 22:28N 54°23' E 018°40'0 0.0
2018-Jun-14 21:58N 54°23' E 018°40'0 0.0
2018-Jun-14 21:25N 54°23' E 018°40'0 0.0
2018-Jun-14 20:58N 54°23' E 018°40'0 0.0
2018-Jun-14 20:28N 54°23' E 018°40'0 0.0
2018-Jun-14 19:58N 54°23' E 018°40'0 0.0
2018-Jun-14 19:28N 54°23' E 018°40'0 0.0
2018-Jun-14 18:58N 54°23' E 018°40'0 0.0
2018-Jun-14 18:28N 54°23' E 018°40'0 0.0
2018-Jun-14 17:58N 54°23' E 018°40'0 0.0
2018-Jun-14 17:25N 54°23' E 018°40'0 0.0
2018-Jun-14 16:58N 54°23' E 018°40'0 0.0
2018-Jun-14 16:28N 54°23' E 018°40'0 0.0
2018-Jun-14 15:58N 54°23' E 018°40'0 0.0
2018-Jun-14 15:28N 54°23' E 018°40'0 0.0
2018-Jun-14 14:58N 54°23' E 018°40'0 0.0
2018-Jun-14 14:28N 54°23' E 018°40'0 0.0
2018-Jun-14 13:58N 54°23' E 018°40'0 0.0
2018-Jun-14 13:25N 54°23' E 018°40'0 0.0
2018-Jun-14 12:58N 54°23' E 018°40'0 0.0
2018-Jun-14 12:28N 54°23' E 018°40'0 0.0
2018-Jun-14 11:58N 54°23' E 018°40'0 0.0
2018-Jun-14 11:28N 54°23' E 018°40'0 0.0
2018-Jun-14 10:55N 54°23' E 018°40'0 0.0
2018-Jun-14 10:28N 54°23' E 018°40'0 0.0
2018-Jun-14 09:58N 54°23' E 018°40'0 0.0
2018-Jun-14 09:28N 54°23' E 018°40'0 0.0
2018-Jun-14 08:58N 54°23' E 018°40'0 0.0
2018-Jun-14 08:28N 54°23' E 018°40'0 0.0
2018-Jun-14 07:58N 54°23' E 018°40'0 0.0
2018-Jun-14 07:25N 54°23' E 018°40'0 0.0
2018-Jun-14 06:58N 54°23' E 018°40'0 0.0
2018-Jun-14 06:28N 54°23' E 018°40'0 0.0
2018-Jun-14 05:58N 54°23' E 018°40'0 0.0
2018-Jun-14 05:28N 54°23' E 018°40'0 0.0
2018-Jun-14 04:58N 54°23' E 018°40'0 0.0
2018-Jun-14 04:28N 54°23' E 018°40'0 0.0
2018-Jun-14 03:58N 54°23' E 018°40'0 0.0
2018-Jun-14 03:28N 54°23' E 018°40'0 0.0
2018-Jun-14 02:58N 54°23' E 018°40'0 0.0
2018-Jun-14 02:28N 54°23' E 018°40'0 0.0
2018-Jun-14 01:58N 54°23' E 018°40'0 0.0
2018-Jun-14 01:28N 54°23' E 018°40'0 0.0
2018-Jun-14 00:58N 54°23' E 018°40'0 0.0
2018-Jun-14 00:28N 54°23' E 018°40'0 0.0
2018-Jun-13 23:58N 54°23' E 018°40'0 0.0
2018-Jun-13 23:28N 54°23' E 018°40'0 0.0
2018-Jun-13 22:58N 54°23' E 018°40'0 0.0
2018-Jun-13 22:28N 54°23' E 018°40'0 0.0
2018-Jun-13 21:58N 54°23' E 018°40'0 0.0
2018-Jun-13 21:28N 54°23' E 018°40'0 0.0
2018-Jun-13 20:58N 54°23' E 018°40'0 0.0
2018-Jun-13 20:28N 54°23' E 018°40'0 0.0
2018-Jun-13 19:58N 54°23' E 018°40'0 0.0
2018-Jun-13 19:28N 54°23' E 018°40'0 0.0
2018-Jun-13 18:58N 54°23' E 018°40'0 0.0
2018-Jun-13 18:28N 54°23' E 018°40'0 0.0
2018-Jun-13 17:58N 54°23' E 018°40'0 0.0
2018-Jun-13 17:28N 54°23' E 018°40'0 0.0
2018-Jun-13 16:58N 54°23' E 018°40'0 0.0
2018-Jun-13 16:28N 54°23' E 018°40'0 0.0
2018-Jun-13 15:58N 54°23' E 018°40'0 0.0
2018-Jun-13 15:28N 54°23' E 018°40'0 0.0
2018-Jun-13 14:58N 54°23' E 018°40'0 0.0
2018-Jun-13 14:28N 54°23' E 018°40'0 0.0
2018-Jun-13 13:58N 54°23' E 018°40'0 0.0
2018-Jun-13 13:28N 54°23' E 018°40'0 0.0
2018-Jun-13 12:58N 54°23' E 018°40'0 0.0
2018-Jun-13 12:28N 54°23' E 018°40'0 0.0
2018-Jun-13 11:58N 54°23' E 018°40'0 0.0
2018-Jun-13 11:28N 54°23' E 018°40'0 0.0
2018-Jun-13 10:58N 54°23' E 018°40'0 0.0
2018-Jun-13 10:28N 54°23' E 018°40'0 0.0
2018-Jun-13 09:58N 54°23' E 018°40'0 0.0
2018-Jun-13 09:28N 54°23' E 018°40'0 0.0
2018-Jun-13 08:58N 54°23' E 018°40'0 0.0
2018-Jun-13 08:28N 54°23' E 018°40'0 0.0
2018-Jun-13 07:58N 54°23' E 018°40'0 0.0
2018-Jun-13 07:28N 54°23' E 018°40'0 0.0
2018-Jun-13 06:58N 54°23' E 018°40'0 0.0
2018-Jun-13 06:28N 54°23' E 018°40'0 0.0
2018-Jun-13 05:58N 54°23' E 018°40'0 0.0
2018-Jun-13 05:28N 54°23' E 018°40'0 0.0
2018-Jun-13 05:00N 54°23' E 018°40'0 0.0
2018-Jun-13 04:28N 54°23' E 018°40'0 0.0
2018-Jun-13 03:58N 54°23' E 018°40'0 0.0
2018-Jun-13 03:31N 54°23' E 018°40'0 0.0
2018-Jun-13 02:58N 54°23' E 018°40'0 0.0
2018-Jun-13 02:28N 54°23' E 018°40'0 0.0
2018-Jun-13 01:58N 54°23' E 018°40'0 0.0
2018-Jun-13 01:31N 54°23' E 018°40'0 0.0
2018-Jun-13 00:58N 54°23' E 018°40'0 0.0
2018-Jun-13 00:28N 54°23' E 018°40'0 0.0
2018-Jun-12 23:58N 54°23' E 018°40'0 0.0
2018-Jun-12 23:27N 54°23' E 018°40'0 0.0
2018-Jun-12 22:58N 54°23' E 018°40'0 0.0
2018-Jun-12 22:28N 54°23' E 018°40'0 0.0
2018-Jun-12 21:58N 54°23' E 018°40'0 0.0
2018-Jun-12 21:30N 54°23' E 018°40'0 0.0
2018-Jun-12 20:58N 54°23' E 018°40'0 0.0
2018-Jun-12 20:22N 54°23' E 018°40'0 0.0
2018-Jun-12 19:58N 54°23' E 018°40'0 0.0
2018-Jun-12 19:27N 54°23' E 018°40'0 0.0
2018-Jun-12 18:57N 54°23' E 018°40'0 0.0
2018-Jun-12 18:28N 54°23' E 018°40'0 0.0
2018-Jun-12 18:01N 54°23' E 018°40'0 0.0
2018-Jun-12 17:28N 54°23' E 018°40'0 0.0
2018-Jun-12 17:00N 54°23' E 018°40'0 0.0
2018-Jun-12 16:28N 54°23' E 018°40'0 0.0
2018-Jun-12 16:01N 54°23' E 018°40'0 0.0
2018-Jun-12 15:28N 54°23' E 018°40'0 0.0
2018-Jun-12 14:58N 54°23' E 018°40'0 0.0
2018-Jun-12 14:31N 54°23' E 018°40'0 0.0
2018-Jun-12 14:00N 54°23' E 018°40'0 0.0
2018-Jun-12 13:28N 54°23' E 018°40'0 0.0
2018-Jun-12 12:55N 54°23' E 018°40'0 0.0
2018-Jun-12 12:30N 54°23' E 018°40'0 0.0
2018-Jun-12 12:00N 54°23' E 018°40'0 0.0
2018-Jun-12 11:30N 54°23' E 018°40'0 0.0
2018-Jun-12 11:01N 54°23' E 018°40'0 0.0
2018-Jun-12 10:30N 54°23' E 018°40'0 0.0
2018-Jun-12 10:00N 54°23' E 018°40'0 0.0
2018-Jun-12 09:28N 54°23' E 018°40'0 0.0
2018-Jun-12 09:00N 54°23' E 018°40'0 0.0
2018-Jun-12 08:24N 54°23' E 018°40'0 0.0
2018-Jun-12 07:58N 54°23' E 018°40'0 0.0
2018-Jun-12 07:31N 54°23' E 018°40'0 0.0
2018-Jun-12 07:00N 54°23' E 018°40'0 0.0
2018-Jun-12 06:27N 54°23' E 018°40'0 0.0
2018-Jun-12 05:58N 54°23' E 018°40'0 0.0
2018-Jun-12 05:30N 54°23' E 018°40'0 0.0
2018-Jun-12 05:00N 54°23' E 018°40'0 0.0
2018-Jun-12 04:28N 54°23' E 018°40'0 0.0
2018-Jun-12 04:01N 54°23' E 018°40'0 0.0
2018-Jun-12 03:30N 54°23' E 018°40'0 0.0
2018-Jun-12 02:58N 54°23' E 018°40'0 0.0
2018-Jun-12 02:28N 54°23' E 018°40'0 0.0
2018-Jun-12 02:01N 54°23' E 018°40'0 0.0
2018-Jun-12 01:30N 54°23' E 018°40'0 0.0
2018-Jun-12 01:00N 54°23' E 018°40'0 0.0
2018-Jun-12 00:30N 54°23' E 018°40'0 0.0
2018-Jun-12 00:00N 54°23' E 018°40'0 0.0
2018-Jun-11 23:30N 54°23' E 018°40'0 0.0
2018-Jun-11 23:00N 54°23' E 018°40'0 0.0
2018-Jun-11 22:30N 54°23' E 018°40'0 0.0
2018-Jun-11 22:00N 54°23' E 018°40'0 0.0
2018-Jun-11 21:30N 54°23' E 018°40'0 0.0
2018-Jun-11 21:00N 54°23' E 018°40'0 0.0
2018-Jun-11 20:30N 54°23' E 018°40'0 0.0
2018-Jun-11 20:00N 54°23' E 018°40'0 0.0
2018-Jun-11 19:30N 54°23' E 018°40'0 0.0
2018-Jun-11 19:00N 54°23' E 018°40'0 0.0
2018-Jun-11 18:30N 54°23' E 018°40'0 0.0
2018-Jun-11 18:00N 54°23' E 018°40'0 0.0
2018-Jun-11 17:30N 54°23' E 018°40'0 0.0
2018-Jun-11 17:00N 54°23' E 018°40'0 0.0
2018-Jun-11 16:27N 54°23' E 018°40'0 0.0
2018-Jun-11 16:00N 54°23' E 018°40'0 0.0
2018-Jun-11 15:30N 54°23' E 018°40'  
Track history (hours):
 
Tides and Currents Weather Stations Pressure Air Temp Water Temp Dewpoint Dewpoint Depression Visibility Wind Speed Wind Dir Waves Ship Positions

Vanessa Oldendorff

Last reported at 2018-Jun-21 15:22 UTC. Time now 2018-Jun-23 06:18 UTC.
Position N 49°42' W 003°37'.

Length 183 m; draft 10.4 m.

Type: Cargo ship. MMSI: 255805625.

Date/timePositionNaut miles runAvg speedWind from/ knotsBaromVisibWave heightAir tempDewpointWater temp
2018-Jun-21 15:22N 49°42' W 003°37'812.2
2018-Jun-21 14:41N 49°46' W 003°26'211.9
2018-Jun-21 14:30N 49°47' W 003°23'612.0
2018-Jun-21 14:00N 49°50' W 003°15'612.0
2018-Jun-21 13:29N 49°53' W 003°06'611.8
2018-Jun-21 13:00N 49°56' W 002°59'611.8
2018-Jun-21 12:30N 49°58' W 002°50'612.1
2018-Jun-21 12:00N 50°00' W 002°41'612.4
2018-Jun-21 11:30N 50°02' W 002°32'6814.7
2018-Jun-21 06:52N 50°21' W 000°50'514.4
2018-Jun-21 06:30N 50°22' W 000°42'714.0
2018-Jun-21 05:59N 50°25' W 000°31'713.5
2018-Jun-21 05:30N 50°26' W 000°21'1112.9
2018-Jun-21 04:39N 50°30' W 000°05'612.2
2018-Jun-21 04:08N 50°31' E 000°05'212.0
2018-Jun-21 03:59N 50°32' E 000°07'611.7
2018-Jun-21 03:30N 50°33' E 000°16'611.5
2018-Jun-21 03:00N 50°35' E 000°25'611.3
2018-Jun-21 02:30N 50°37' E 000°33'612.0
2018-Jun-21 02:00N 50°40' E 000°41'612.4
2018-Jun-21 01:30N 50°43' E 000°49'612.8
2018-Jun-21 01:00N 50°47' E 000°58'713.4
2018-Jun-21 00:30N 50°52' E 001°05'713.8
2018-Jun-21 00:00N 50°56' E 001°13'714.1
2018-Jun-20 23:30N 51°01' E 001°21'713.8
2018-Jun-20 23:00N 51°05' E 001°30'713.1
2018-Jun-20 22:30N 51°09' E 001°38'612.4
2018-Jun-20 22:00N 51°14' E 001°46'611.5
2018-Jun-20 21:30N 51°19' E 001°50'611.2
2018-Jun-20 21:00N 51°24' E 001°53'510.7
2018-Jun-20 20:30N 51°29' E 001°57'510.5
2018-Jun-20 20:00N 51°33' E 002°02'510.5
2018-Jun-20 19:30N 51°37' E 002°08'510.8
2018-Jun-20 19:00N 51°40' E 002°14'510.6
2018-Jun-20 18:30N 51°44' E 002°20'611.1
2018-Jun-20 17:58N 51°49' E 002°26'4512.8
2018-Jun-20 14:26N 52°30' E 002°56'41611.0
2018-Jun-19 00:38N 57°46' E 010°50'211.4
2018-Jun-19 00:29N 57°45' E 010°52'611.6
2018-Jun-19 00:00N 57°42' E 011°00'611.8
2018-Jun-18 23:30N 57°38' E 011°08'611.6
2018-Jun-18 23:00N 57°34' E 011°16'611.2
2018-Jun-18 22:31N 57°30' E 011°24'611.3
2018-Jun-18 22:00N 57°26' E 011°30'611.6
2018-Jun-18 21:30N 57°20' E 011°34'611.5
2018-Jun-18 21:00N 57°14' E 011°36'12211.0
2018-Jun-18 09:53N 55°13' E 011°06'512.3
2018-Jun-18 09:30N 55°09' E 011°03'612.7
2018-Jun-18 09:00N 55°03' E 011°02'611.7
2018-Jun-18 08:30N 54°58' E 010°56'5 9.3
2018-Jun-18 08:00N 54°54' E 010°52'510.6
2018-Jun-18 07:30N 54°49' E 010°50'611.9
2018-Jun-18 07:00N 54°43' E 010°47'510.4
2018-Jun-18 06:30N 54°39' E 010°53'611.7
2018-Jun-18 06:00N 54°36' E 011°01'611.6
2018-Jun-18 05:30N 54°35' E 011°11'612.3
2018-Jun-18 05:00N 54°33' E 011°21'612.5
2018-Jun-18 04:30N 54°30' E 011°31'611.8
2018-Jun-18 03:58N 54°28' E 011°41'611.9
2018-Jun-18 03:29N 54°26' E 011°50'612.4
2018-Jun-18 02:59N 54°26' E 012°01'611.6
2018-Jun-18 02:29N 54°27' E 012°11'711.7
2018-Jun-18 01:53N 54°33' E 012°15'3 8.7
2018-Jun-18 01:30N 54°37' E 012°17'4 7.8
2018-Jun-18 00:58N 54°39' E 012°23'5011.3
2018-Jun-17 20:34N 54°44' E 013°49'112.5
2018-Jun-17 20:30N 54°44' E 013°50'1012.6
2018-Jun-17 19:43N 54°41' E 014°07'312.5
2018-Jun-17 19:28N 54°40' E 014°12'812.3
2018-Jun-17 18:48N 54°38' E 014°26'412.4
2018-Jun-17 18:30N 54°39' E 014°32'812.5
2018-Jun-17 17:52N 54°40' E 014°45'612.7
2018-Jun-17 17:23N 54°41' E 014°56'512.7
2018-Jun-17 17:00N 54°41' E 015°04'612.5
2018-Jun-17 16:30N 54°42' E 015°15'7111.9
2018-Jun-17 10:32N 54°54' E 017°16'012.1
2018-Jun-17 10:30N 54°54' E 017°17'1312.3
2018-Jun-17 09:28N 54°57' E 017°38'612.0
2018-Jun-17 09:00N 54°58' E 017°48'612.3
2018-Jun-17 08:30N 54°58' E 017°59'612.3
2018-Jun-17 07:59N 54°58' E 018°10'612.5
2018-Jun-17 07:30N 54°58' E 018°20'612.2
2018-Jun-17 07:00N 54°58' E 018°31'612.3
2018-Jun-17 06:30N 54°54' E 018°40'612.3
2018-Jun-17 06:00N 54°51' E 018°48'612.0
2018-Jun-17 05:30N 54°47' E 018°56'611.1
2018-Jun-17 05:00N 54°41' E 018°58'612.3
2018-Jun-17 04:30N 54°35' E 018°54'612.3
2018-Jun-17 04:00N 54°31' E 018°47'510.9
2018-Jun-17 03:30N 54°27' E 018°41'2 4.3
2018-Jun-17 03:00N 54°25' E 018°40'1 2.5
2018-Jun-17 02:30N 54°24' E 018°41'1 1.5
2018-Jun-17 01:58N 54°23' E 018°40'0 0.0
2018-Jun-17 01:28N 54°23' E 018°40'0 0.0
2018-Jun-17 00:58N 54°23' E 018°40'0 0.0
2018-Jun-17 00:28N 54°23' E 018°40'0 0.0
2018-Jun-16 23:58N 54°23' E 018°40'0 0.0
2018-Jun-16 23:28N 54°23' E 018°40'0 0.0
2018-Jun-16 22:58N 54°23' E 018°40'0 0.0
2018-Jun-16 22:28N 54°23' E 018°40'0 0.0
2018-Jun-16 21:55N 54°23' E 018°40'0 0.0
2018-Jun-16 21:28N 54°23' E 018°40'0 0.0
2018-Jun-16 20:58N 54°23' E 018°40'0 0.0
2018-Jun-16 20:28N 54°23' E 018°40'0 0.0
2018-Jun-16 19:58N 54°23' E 018°40'0 0.0
2018-Jun-16 19:28N 54°23' E 018°40'0 0.0
2018-Jun-16 18:58N 54°23' E 018°40'0 0.0
2018-Jun-16 18:28N 54°23' E 018°40'0 0.0
2018-Jun-16 17:58N 54°23' E 018°40'0 0.0
2018-Jun-16 17:25N 54°23' E 018°40'0 0.0
2018-Jun-16 16:58N 54°23' E 018°40'0 0.0
2018-Jun-16 16:25N 54°23' E 018°40'0 0.0
2018-Jun-16 15:58N 54°23' E 018°40'0 0.0
2018-Jun-16 15:28N 54°23' E 018°40'0 0.0
2018-Jun-16 14:58N 54°23' E 018°40'0 0.0
2018-Jun-16 14:28N 54°23' E 018°40'0 0.0
2018-Jun-16 13:55N 54°23' E 018°40'0 0.0
2018-Jun-16 13:28N 54°23' E 018°40'0 0.0
2018-Jun-16 12:58N 54°23' E 018°40'0 0.0
2018-Jun-16 12:28N 54°23' E 018°40'0 0.0
2018-Jun-16 11:58N 54°23' E 018°40'0 0.0
2018-Jun-16 11:25N 54°23' E 018°40'0 0.0
2018-Jun-16 10:58N 54°23' E 018°40'0 0.0
2018-Jun-16 10:28N 54°23' E 018°40'0 0.0
2018-Jun-16 09:58N 54°23' E 018°40'0 0.0
2018-Jun-16 09:28N 54°23' E 018°40'0 0.0
2018-Jun-16 08:58N 54°23' E 018°40'0 0.0
2018-Jun-16 08:28N 54°23' E 018°40'0 0.0
2018-Jun-16 07:58N 54°23' E 018°40'0 0.0
2018-Jun-16 07:28N 54°23' E 018°40'0 0.0
2018-Jun-16 06:58N 54°23' E 018°40'0 0.0
2018-Jun-16 06:28N 54°23' E 018°40'0 0.0
2018-Jun-16 05:58N 54°23' E 018°40'0 0.0
2018-Jun-16 05:28N 54°23' E 018°40'0 0.0
2018-Jun-16 04:58N 54°23' E 018°40'0 0.0
2018-Jun-16 04:28N 54°23' E 018°40'0 0.0
2018-Jun-16 03:58N 54°23' E 018°40'0 0.0
2018-Jun-16 03:28N 54°23' E 018°40'0 0.0
2018-Jun-16 02:58N 54°23' E 018°40'0 0.0
2018-Jun-16 02:28N 54°23' E 018°40'0 0.0
2018-Jun-16 01:58N 54°23' E 018°40'0 0.0
2018-Jun-16 01:28N 54°23' E 018°40'0 0.0
2018-Jun-16 00:58N 54°23' E 018°40'0 0.0
2018-Jun-16 00:28N 54°23' E 018°40'0 0.0
2018-Jun-15 23:58N 54°23' E 018°40'0 0.0
2018-Jun-15 23:28N 54°23' E 018°40'0 0.0
2018-Jun-15 22:58N 54°23' E 018°40'0 0.0
2018-Jun-15 22:28N 54°23' E 018°40'0 0.0
2018-Jun-15 21:58N 54°23' E 018°40'0 0.0
2018-Jun-15 21:28N 54°23' E 018°40'0 0.0
2018-Jun-15 20:58N 54°23' E 018°40'0 0.0
2018-Jun-15 20:28N 54°23' E 018°40'0 0.0
2018-Jun-15 19:58N 54°23' E 018°40'0 0.0
2018-Jun-15 19:28N 54°23' E 018°40'0 0.0
2018-Jun-15 18:58N 54°23' E 018°40'0 0.0
2018-Jun-15 18:28N 54°23' E 018°40'0 0.0
2018-Jun-15 17:58N 54°23' E 018°40'0 0.0
2018-Jun-15 17:28N 54°23' E 018°40'0 0.0
2018-Jun-15 16:58N 54°23' E 018°40'0 0.0
2018-Jun-15 16:28N 54°23' E 018°40'0 0.0
2018-Jun-15 15:58N 54°23' E 018°40'0 0.0
2018-Jun-15 15:28N 54°23' E 018°40'0 0.0
2018-Jun-15 14:58N 54°23' E 018°40'0 0.0
2018-Jun-15 14:28N 54°23' E 018°40'0 0.0
2018-Jun-15 13:58N 54°23' E 018°40'0 0.0
2018-Jun-15 13:28N 54°23' E 018°40'0 0.0
2018-Jun-15 12:58N 54°23' E 018°40'0 0.0
2018-Jun-15 12:28N 54°23' E 018°40'0 0.0
2018-Jun-15 11:58N 54°23' E 018°40'0 0.0
2018-Jun-15 11:28N 54°23' E 018°40'0 0.0
2018-Jun-15 10:58N 54°23' E 018°40'0 0.0
2018-Jun-15 10:28N 54°23' E 018°40'0 0.0
2018-Jun-15 09:58N 54°23' E 018°40'0 0.0
2018-Jun-15 09:28N 54°23' E 018°40'0 0.0
2018-Jun-15 08:58N 54°23' E 018°40'0 0.0
2018-Jun-15 08:28N 54°23' E 018°40'0 0.0
2018-Jun-15 07:58N 54°23' E 018°40'0 0.0
2018-Jun-15 07:28N 54°23' E 018°40'0 0.0
2018-Jun-15 06:58N 54°23' E 018°40'0 0.0
2018-Jun-15 06:28N 54°23' E 018°40'0 0.0
2018-Jun-15 05:58N 54°23' E 018°40'0 0.0
2018-Jun-15 05:28N 54°23' E 018°40'0 0.0
2018-Jun-15 04:58N 54°23' E 018°40'0 0.0
2018-Jun-15 04:28N 54°23' E 018°40'0 0.0
2018-Jun-15 03:58N 54°23' E 018°40'0 0.0
2018-Jun-15 03:28N 54°23' E 018°40'0 0.0
2018-Jun-15 02:58N 54°23' E 018°40'0 0.0
2018-Jun-15 02:28N 54°23' E 018°40'0 0.0
2018-Jun-15 01:58N 54°23' E 018°40'0 0.0
2018-Jun-15 01:28N 54°23' E 018°40'0 0.0
2018-Jun-15 00:58N 54°23' E 018°40'0 0.0
2018-Jun-15 00:28N 54°23' E 018°40'0 0.0
2018-Jun-14 23:58N 54°23' E 018°40'0 0.0
2018-Jun-14 23:28N 54°23' E 018°40'0 0.0
2018-Jun-14 22:58N 54°23' E 018°40'0 0.0
2018-Jun-14 22:28N 54°23' E 018°40'0 0.0
2018-Jun-14 21:58N 54°23' E 018°40'0 0.0
2018-Jun-14 21:25N 54°23' E 018°40'0 0.0
2018-Jun-14 20:58N 54°23' E 018°40'0 0.0
2018-Jun-14 20:28N 54°23' E 018°40'0 0.0
2018-Jun-14 19:58N 54°23' E 018°40'0 0.0
2018-Jun-14 19:28N 54°23' E 018°40'0 0.0
2018-Jun-14 18:58N 54°23' E 018°40'0 0.0
2018-Jun-14 18:28N 54°23' E 018°40'0 0.0
2018-Jun-14 17:58N 54°23' E 018°40'0 0.0
2018-Jun-14 17:25N 54°23' E 018°40'0 0.0
2018-Jun-14 16:58N 54°23' E 018°40'0 0.0
2018-Jun-14 16:28N 54°23' E 018°40'0 0.0
2018-Jun-14 15:58N 54°23' E 018°40'0 0.0
2018-Jun-14 15:28N 54°23' E 018°40'0 0.0
2018-Jun-14 14:58N 54°23' E 018°40'0 0.0
2018-Jun-14 14:28N 54°23' E 018°40'0 0.0
2018-Jun-14 13:58N 54°23' E 018°40'0 0.0
2018-Jun-14 13:25N 54°23' E 018°40'0 0.0
2018-Jun-14 12:58N 54°23' E 018°40'0 0.0
2018-Jun-14 12:28N 54°23' E 018°40'0 0.0
2018-Jun-14 11:58N 54°23' E 018°40'0 0.0
2018-Jun-14 11:28N 54°23' E 018°40'0 0.0
2018-Jun-14 10:55N 54°23' E 018°40'0 0.0
2018-Jun-14 10:28N 54°23' E 018°40'0 0.0
2018-Jun-14 09:58N 54°23' E 018°40'0 0.0
2018-Jun-14 09:28N 54°23' E 018°40'0 0.0
2018-Jun-14 08:58N 54°23' E 018°40'0 0.0
2018-Jun-14 08:28N 54°23' E 018°40'0 0.0
2018-Jun-14 07:58N 54°23' E 018°40'0 0.0
2018-Jun-14 07:25N 54°23' E 018°40'0 0.0
2018-Jun-14 06:58N 54°23' E 018°40'0 0.0
2018-Jun-14 06:28N 54°23' E 018°40'0 0.0
2018-Jun-14 05:58N 54°23' E 018°40'0 0.0
2018-Jun-14 05:28N 54°23' E 018°40'0 0.0
2018-Jun-14 04:58N 54°23' E 018°40'0 0.0
2018-Jun-14 04:28N 54°23' E 018°40'0 0.0
2018-Jun-14 03:58N 54°23' E 018°40'0 0.0
2018-Jun-14 03:28N 54°23' E 018°40'0 0.0
2018-Jun-14 02:58N 54°23' E 018°40'0 0.0
2018-Jun-14 02:28N 54°23' E 018°40'0 0.0
2018-Jun-14 01:58N 54°23' E 018°40'0 0.0
2018-Jun-14 01:28N 54°23' E 018°40'0 0.0
2018-Jun-14 00:58N 54°23' E 018°40'0 0.0
2018-Jun-14 00:28N 54°23' E 018°40'0 0.0
2018-Jun-13 23:58N 54°23' E 018°40'0 0.0
2018-Jun-13 23:28N 54°23' E 018°40'0 0.0
2018-Jun-13 22:58N 54°23' E 018°40'0 0.0
2018-Jun-13 22:28N 54°23' E 018°40'0 0.0
2018-Jun-13 21:58N 54°23' E 018°40'0 0.0
2018-Jun-13 21:28N 54°23' E 018°40'0 0.0
2018-Jun-13 20:58N 54°23' E 018°40'0 0.0
2018-Jun-13 20:28N 54°23' E 018°40'0 0.0
2018-Jun-13 19:58N 54°23' E 018°40'0 0.0
2018-Jun-13 19:28N 54°23' E 018°40'0 0.0
2018-Jun-13 18:58N 54°23' E 018°40'0 0.0
2018-Jun-13 18:28N 54°23' E 018°40'0 0.0
2018-Jun-13 17:58N 54°23' E 018°40'0 0.0
2018-Jun-13 17:28N 54°23' E 018°40'0 0.0
2018-Jun-13 16:58N 54°23' E 018°40'0 0.0
2018-Jun-13 16:28N 54°23' E 018°40'0 0.0
2018-Jun-13 15:58N 54°23' E 018°40'0 0.0
2018-Jun-13 15:28N 54°23' E 018°40'0 0.0
2018-Jun-13 14:58N 54°23' E 018°40'0 0.0
2018-Jun-13 14:28N 54°23' E 018°40'0 0.0
2018-Jun-13 13:58N 54°23' E 018°40'0 0.0
2018-Jun-13 13:28N 54°23' E 018°40'0 0.0
2018-Jun-13 12:58N 54°23' E 018°40'0 0.0
2018-Jun-13 12:28N 54°23' E 018°40'0 0.0
2018-Jun-13 11:58N 54°23' E 018°40'0 0.0
2018-Jun-13 11:28N 54°23' E 018°40'0 0.0
2018-Jun-13 10:58N 54°23' E 018°40'0 0.0
2018-Jun-13 10:28N 54°23' E 018°40'0 0.0
2018-Jun-13 09:58N 54°23' E 018°40'0 0.0
2018-Jun-13 09:28N 54°23' E 018°40'0 0.0
2018-Jun-13 08:58N 54°23' E 018°40'0 0.0
2018-Jun-13 08:28N 54°23' E 018°40'0 0.0
2018-Jun-13 07:58N 54°23' E 018°40'0 0.0
2018-Jun-13 07:28N 54°23' E 018°40'0 0.0
2018-Jun-13 06:58N 54°23' E 018°40'0 0.0
2018-Jun-13 06:28N 54°23' E 018°40'0 0.0
2018-Jun-13 05:58N 54°23' E 018°40'0 0.0
2018-Jun-13 05:28N 54°23' E 018°40'0 0.0
2018-Jun-13 05:00N 54°23' E 018°40'0 0.0
2018-Jun-13 04:28N 54°23' E 018°40'0 0.0
2018-Jun-13 03:58N 54°23' E 018°40'0 0.0
2018-Jun-13 03:31N 54°23' E 018°40'0 0.0
2018-Jun-13 02:58N 54°23' E 018°40'0 0.0
2018-Jun-13 02:28N 54°23' E 018°40'0 0.0
2018-Jun-13 01:58N 54°23' E 018°40'0 0.0
2018-Jun-13 01:31N 54°23' E 018°40'0 0.0
2018-Jun-13 00:58N 54°23' E 018°40'0 0.0
2018-Jun-13 00:28N 54°23' E 018°40'0 0.0
2018-Jun-12 23:58N 54°23' E 018°40'0 0.0
2018-Jun-12 23:27N 54°23' E 018°40'0 0.0
2018-Jun-12 22:58N 54°23' E 018°40'0 0.0
2018-Jun-12 22:28N 54°23' E 018°40'0 0.0
2018-Jun-12 21:58N 54°23' E 018°40'0 0.0
2018-Jun-12 21:30N 54°23' E 018°40'0 0.0
2018-Jun-12 20:58N 54°23' E 018°40'0 0.0
2018-Jun-12 20:22N 54°23' E 018°40'0 0.0
2018-Jun-12 19:58N 54°23' E 018°40'0 0.0
2018-Jun-12 19:27N 54°23' E 018°40'0 0.0
2018-Jun-12 18:57N 54°23' E 018°40'0 0.0
2018-Jun-12 18:28N 54°23' E 018°40'0 0.0
2018-Jun-12 18:01N 54°23' E 018°40'0 0.0
2018-Jun-12 17:28N 54°23' E 018°40'0 0.0
2018-Jun-12 17:00N 54°23' E 018°40'0 0.0
2018-Jun-12 16:28N 54°23' E 018°40'0 0.0
2018-Jun-12 16:01N 54°23' E 018°40'0 0.0
2018-Jun-12 15:28N 54°23' E 018°40'0 0.0
2018-Jun-12 14:58N 54°23' E 018°40'0 0.0
2018-Jun-12 14:31N 54°23' E 018°40'0 0.0
2018-Jun-12 14:00N 54°23' E 018°40'0 0.0
2018-Jun-12 13:28N 54°23' E 018°40'0 0.0
2018-Jun-12 12:55N 54°23' E 018°40'0 0.0
2018-Jun-12 12:30N 54°23' E 018°40'0 0.0
2018-Jun-12 12:00N 54°23' E 018°40'0 0.0
2018-Jun-12 11:30N 54°23' E 018°40'0 0.0
2018-Jun-12 11:01N 54°23' E 018°40'0 0.0
2018-Jun-12 10:30N 54°23' E 018°40'0 0.0
2018-Jun-12 10:00N 54°23' E 018°40'0 0.0
2018-Jun-12 09:28N 54°23' E 018°40'0 0.0
2018-Jun-12 09:00N 54°23' E 018°40'0 0.0
2018-Jun-12 08:24N 54°23' E 018°40'0 0.0
2018-Jun-12 07:58N 54°23' E 018°40'0 0.0
2018-Jun-12 07:31N 54°23' E 018°40'0 0.0
2018-Jun-12 07:00N 54°23' E 018°40'0 0.0
2018-Jun-12 06:27N 54°23' E 018°40'0 0.0
2018-Jun-12 05:58N 54°23' E 018°40'0 0.0
2018-Jun-12 05:30N 54°23' E 018°40'0 0.0
2018-Jun-12 05:00N 54°23' E 018°40'0 0.0
2018-Jun-12 04:28N 54°23' E 018°40'0 0.0
2018-Jun-12 04:01N 54°23' E 018°40'0 0.0
2018-Jun-12 03:30N 54°23' E 018°40'0 0.0
2018-Jun-12 02:58N 54°23' E 018°40'0 0.0
2018-Jun-12 02:28N 54°23' E 018°40'0 0.0
2018-Jun-12 02:01N 54°23' E 018°40'0 0.0
2018-Jun-12 01:30N 54°23' E 018°40'0 0.0
2018-Jun-12 01:00N 54°23' E 018°40'0 0.0
2018-Jun-12 00:30N 54°23' E 018°40'0 0.0
2018-Jun-12 00:00N 54°23' E 018°40'0 0.0
2018-Jun-11 23:30N 54°23' E 018°40'0 0.0
2018-Jun-11 23:00N 54°23' E 018°40'0 0.0
2018-Jun-11 22:30N 54°23' E 018°40'0 0.0
2018-Jun-11 22:00N 54°23' E 018°40'0 0.0
2018-Jun-11 21:30N 54°23' E 018°40'0 0.0
2018-Jun-11 21:00N 54°23' E 018°40'0 0.0
2018-Jun-11 20:30N 54°23' E 018°40'0 0.0
2018-Jun-11 20:00N 54°23' E 018°40'0 0.0
2018-Jun-11 19:30N 54°23' E 018°40'0 0.0
2018-Jun-11 19:00N 54°23' E 018°40'0 0.0
2018-Jun-11 18:30N 54°23' E 018°40'0 0.0
2018-Jun-11 18:00N 54°23' E 018°40'0 0.0
2018-Jun-11 17:30N 54°23' E 018°40'0 0.0
2018-Jun-11 17:00N 54°23' E 018°40'0 0.0
2018-Jun-11 16:27N 54°23' E 018°40'0 0.0
2018-Jun-11 16:00N 54°23' E 018°40'0 0.0
2018-Jun-11 15:30N 54°23' E 018°40'  

Dump ship's entire track history